Time;durP1;ratioP1;P1;durP2;ratioP2;P2;SDS_P1;SDS_P2;PMS_P1;PMS_P2;Temp;Humidity;BMP_temperature;BMP_pressure;BME280_temperature;BME280_humidity;BME280_pressure;Samples;Min_cycle;Max_cycle;Signal;HPM_P1;HPM_P2
2022/09/21 00:00:38;;;;;;;2.67;2.47;;;8.20;99.90;;;;;;5054273;28;20289;-77
2022/09/21 00:03:04;;;;;;;4.83;3.60;;;8.20;99.90;;;;;;5054527;28;20175;-77
2022/09/21 00:05:30;;;;;;;3.27;2.97;;;8.40;99.90;;;;;;5054230;28;20202;-78
2022/09/21 00:07:58;;;;;;;4.23;2.60;;;8.50;99.90;;;;;;5054976;28;20232;-78
2022/09/21 00:10:25;;;;;;;4.57;2.80;;;8.50;99.90;;;;;;5055175;28;20501;-78
2022/09/21 00:12:50;;;;;;;6.60;3.03;;;8.60;99.90;;;;;;5056094;28;20407;-78
2022/09/21 00:15:19;;;;;;;6.50;2.43;;;8.60;99.90;;;;;;5058537;28;20922;-77
2022/09/21 00:17:46;;;;;;;4.10;2.67;;;8.40;99.90;;;;;;5055826;28;20252;-78
2022/09/21 00:20:13;;;;;;;2.70;2.10;;;8.40;99.90;;;;;;5054425;28;20453;-78
2022/09/21 00:22:38;;;;;;;2.77;2.57;;;8.40;99.90;;;;;;5035403;28;20923;-78
2022/09/21 00:25:04;;;;;;;3.70;2.80;;;8.40;99.90;;;;;;5053938;28;20410;-78
2022/09/21 00:27:30;;;;;;;3.17;2.87;;;8.40;99.90;;;;;;5054155;28;20183;-78
2022/09/21 00:30:01;;;;;;;3.40;3.03;;;8.40;99.90;;;;;;5053650;28;20417;-78
2022/09/21 00:32:27;;;;;;;3.50;2.70;;;8.40;99.90;;;;;;5053765;28;20450;-78
2022/09/21 00:34:52;;;;;;;2.43;2.23;;;8.40;99.90;;;;;;5053714;28;20944;-78
2022/09/21 00:37:19;;;;;;;5.33;2.83;;;8.40;99.90;;;;;;5053716;28;20428;-78
2022/09/21 00:39:45;;;;;;;2.80;2.40;;;8.30;99.90;;;;;;5053553;28;20306;-78
2022/09/21 00:42:31;;;;;;;5.03;3.40;;;8.30;99.90;;;;;;5053455;28;20402;-77
2022/09/21 00:44:57;;;;;;;3.50;2.93;;;8.30;99.90;;;;;;5053293;28;20770;-78
2022/09/21 00:47:40;;;;;;;3.20;2.90;;;8.30;99.90;;;;;;5054010;28;20939;-78
2022/09/21 00:50:10;;;;;;;6.23;3.43;;;8.20;99.90;;;;;;5054887;28;20417;-78
2022/09/21 00:52:41;;;;;;;2.97;2.67;;;8.20;99.90;;;;;;5057281;28;20393;-78
2022/09/21 00:55:13;;;;;;;3.70;2.53;;;8.10;99.90;;;;;;5055707;28;20402;-78
2022/09/21 00:57:39;;;;;;;4.77;2.73;;;8.20;99.90;;;;;;5054024;28;20503;-78
2022/09/21 01:00:07;;;;;;;3.20;2.90;;;8.10;99.90;;;;;;5054105;28;20534;-78
2022/09/21 01:02:34;;;;;;;2.53;2.33;;;8.10;99.90;;;;;;5053568;28;20398;-78
2022/09/21 01:05:01;;;;;;;3.30;2.80;;;8.10;99.90;;;;;;5053560;28;20410;-78
2022/09/21 01:07:30;;;;;;;4.13;2.50;;;8.00;99.90;;;;;;5053294;28;20507;-79
2022/09/21 01:10:01;;;;;;;5.40;2.57;;;8.00;99.90;;;;;;5053440;28;20398;-78
2022/09/21 01:12:37;;;;;;;3.27;2.90;;;8.00;99.90;;;;;;5053224;28;20405;-78
2022/09/21 01:15:22;;;;;;;5.03;4.13;;;8.00;99.90;;;;;;5052585;28;20486;-78
2022/09/21 01:17:55;;;;;;;3.67;3.37;;;8.00;99.90;;;;;;5052180;28;20507;-78
2022/09/21 01:20:42;;;;;;;9.97;4.87;;;8.00;99.90;;;;;;5052543;28;20971;-79
2022/09/21 01:23:26;;;;;;;10.23;5.20;;;8.00;99.90;;;;;;5052273;28;20957;-78
2022/09/21 01:26:01;;;;;;;15.23;7.43;;;7.90;99.90;;;;;;5053560;28;20401;-78
2022/09/21 01:28:33;;;;;;;16.73;7.70;;;7.90;99.90;;;;;;5056537;28;20500;-78
2022/09/21 01:31:04;;;;;;;13.47;7.57;;;7.80;99.90;;;;;;5052680;28;20423;-78
2022/09/21 01:33:45;;;;;;;6.50;4.33;;;7.90;99.90;;;;;;5051855;28;20406;-78
2022/09/21 01:36:17;;;;;;;6.40;4.47;;;7.80;99.90;;;;;;5033975;28;20418;-78
2022/09/21 01:38:53;;;;;;;4.00;3.37;;;7.90;99.90;;;;;;5051830;28;20413;-78
2022/09/21 01:41:24;;;;;;;4.30;3.17;;;7.80;99.90;;;;;;5034204;28;20502;-78
2022/09/21 01:43:54;;;;;;;5.90;2.53;;;7.80;99.90;;;;;;5050876;28;20419;-78
2022/09/21 01:46:24;;;;;;;4.33;2.53;;;7.80;99.90;;;;;;5052175;28;20900;-78
2022/09/21 01:48:54;;;;;;;4.70;2.53;;;7.80;99.90;;;;;;5052338;28;20422;-78
2022/09/21 01:51:24;;;;;;;2.93;2.50;;;7.70;99.90;;;;;;5052682;28;20411;-77
2022/09/21 01:53:58;;;;;;;2.90;2.57;;;7.70;99.90;;;;;;5052645;28;20405;-78
2022/09/21 01:56:31;;;;;;;3.83;3.40;;;7.70;99.90;;;;;;5062575;28;20436;-78
2022/09/21 01:59:21;;;;;;;2.43;2.23;;;7.70;99.90;;;;;;5066800;28;20417;-78
2022/09/21 02:01:55;;;;;;;4.40;3.50;;;7.70;99.90;;;;;;5066799;28;20445;-78
2022/09/21 02:04:20;;;;;;;6.90;4.23;;;7.70;99.90;;;;;;5064666;28;20409;-77
2022/09/21 02:06:47;;;;;;;4.70;3.10;;;7.70;99.90;;;;;;5055760;28;20411;-78
2022/09/21 02:09:13;;;;;;;3.27;2.63;;;7.70;99.90;;;;;;5053329;28;20187;-78
2022/09/21 02:11:43;;;;;;;5.17;3.20;;;7.70;99.90;;;;;;5052999;28;20413;-78
2022/09/21 02:14:18;;;;;;;4.33;3.30;;;7.70;99.90;;;;;;5052035;28;20163;-78
2022/09/21 02:16:55;;;;;;;7.47;4.27;;;7.60;99.90;;;;;;5052157;28;20520;-78
2022/09/21 02:19:47;;;;;;;6.87;5.00;;;7.60;99.90;;;;;;5051526;28;20457;-78
2022/09/21 02:22:28;;;;;;;8.43;4.13;;;7.60;99.90;;;;;;5051216;28;20480;-78
2022/09/21 02:24:57;;;;;;;8.20;4.97;;;7.60;99.90;;;;;;5033204;28;20397;-78
2022/09/21 02:27:30;;;;;;;4.27;2.70;;;7.60;99.90;;;;;;5051586;28;20421;-78
2022/09/21 02:30:07;;;;;;;2.60;2.40;;;7.60;99.90;;;;;;5051517;28;20459;-78
2022/09/21 02:32:45;;;;;;;10.00;3.13;;;7.60;99.90;;;;;;5051444;28;20409;-78
2022/09/21 02:35:27;;;;;;;5.00;3.10;;;7.60;99.90;;;;;;5051320;28;20397;-77
2022/09/21 02:38:19;;;;;;;3.00;2.60;;;7.50;99.90;;;;;;5051321;28;20428;-78
2022/09/21 02:41:05;;;;;;;3.50;3.10;;;7.50;99.90;;;;;;5040533;28;20465;-78
2022/09/21 02:43:30;;;;;;;3.80;2.43;;;7.60;99.90;;;;;;5051460;28;20405;-78
2022/09/21 02:46:40;;;;;;;3.13;2.33;;;7.60;99.90;;;;;;5052524;28;20478;-78
2022/09/21 02:49:12;;;;;;;2.27;2.07;;;7.70;99.90;;;;;;4957885;28;20622;-78
2022/09/21 02:51:52;;;;;;;2.73;2.30;;;7.70;99.90;;;;;;4974086;28;20463;-78
2022/09/21 02:54:21;;;;;;;3.23;2.40;;;7.60;99.90;;;;;;5027366;28;20899;-79
2022/09/21 02:56:48;;;;;;;3.43;2.30;;;7.60;99.90;;;;;;5055116;28;20998;-77
2022/09/21 02:59:15;;;;;;;2.33;2.13;;;7.60;99.90;;;;;;5055071;28;20417;-78
2022/09/21 03:01:41;;;;;;;7.43;2.50;;;7.50;99.90;;;;;;5054638;28;21244;-77
2022/09/21 03:04:07;;;;;;;3.50;3.07;;;7.50;99.90;;;;;;5055294;28;20429;-78
2022/09/21 03:06:32;;;;;;;4.70;3.00;;;7.60;99.90;;;;;;5056932;28;20497;-77
2022/09/21 03:08:58;;;;;;;3.73;2.40;;;7.60;99.90;;;;;;5056322;28;20237;-78
2022/09/21 03:11:24;;;;;;;3.07;2.77;;;7.60;99.90;;;;;;5057680;28;20194;-77
2022/09/21 03:13:50;;;;;;;3.87;3.33;;;7.70;99.90;;;;;;5059169;28;20406;-77
2022/09/21 03:16:16;;;;;;;4.20;3.17;;;7.60;99.90;;;;;;5056232;28;20198;-76
2022/09/21 03:18:43;;;;;;;3.63;2.93;;;7.60;99.90;;;;;;5054449;28;20199;-77
2022/09/21 03:21:09;;;;;;;3.50;2.77;;;7.70;99.90;;;;;;5055354;28;20883;-78
2022/09/21 03:23:35;;;;;;;4.17;3.00;;;7.70;99.90;;;;;;5040840;28;20405;-77
2022/09/21 03:26:01;;;;;;;3.43;2.77;;;7.70;99.90;;;;;;5055027;28;20409;-78
2022/09/21 03:28:27;;;;;;;4.47;3.07;;;7.70;99.90;;;;;;5056155;28;20506;-77
2022/09/21 03:30:52;;;;;;;3.13;2.83;;;7.80;99.90;;;;;;5057075;28;20544;-78
2022/09/21 03:33:19;;;;;;;3.07;2.83;;;7.80;99.90;;;;;;5057851;28;20171;-77
2022/09/21 03:35:47;;;;;;;2.80;2.37;;;7.80;99.90;;;;;;5054004;28;20202;-77
2022/09/21 03:38:15;;;;;;;3.17;2.87;;;7.70;99.90;;;;;;5054027;28;21033;-77
2022/09/21 03:40:45;;;;;;;4.00;2.80;;;7.70;99.90;;;;;;5053875;28;20453;-79
2022/09/21 03:43:10;;;;;;;3.60;2.80;;;7.70;99.90;;;;;;5054567;28;20410;-76
2022/09/21 03:45:38;;;;;;;4.50;2.90;;;7.70;99.90;;;;;;5037478;28;20532;-77
2022/09/21 03:48:04;;;;;;;2.97;2.67;;;7.70;99.90;;;;;;5054267;28;20504;-77
2022/09/21 03:50:30;;;;;;;3.20;2.57;;;7.70;99.90;;;;;;5037042;28;20444;-77
2022/09/21 03:52:55;;;;;;;3.00;2.47;;;7.80;99.90;;;;;;5053578;28;20171;-77
2022/09/21 03:55:21;;;;;;;3.60;2.97;;;7.70;99.90;;;;;;5054006;28;20704;-77
2022/09/21 03:57:47;;;;;;;4.07;3.23;;;7.60;99.90;;;;;;5054667;28;20676;-76
2022/09/21 04:00:13;;;;;;;2.40;2.20;;;7.60;99.90;;;;;;5055018;28;20745;-77
2022/09/21 04:02:39;;;;;;;3.07;2.77;;;7.60;99.90;;;;;;5053876;28;20167;-78
2022/09/21 04:05:07;;;;;;;4.87;2.87;;;7.60;99.90;;;;;;5037961;28;20497;-76
2022/09/21 04:07:33;;;;;;;3.63;3.03;;;7.50;99.90;;;;;;5054840;28;20460;-78
2022/09/21 04:10:04;;;;;;;2.97;2.67;;;7.50;99.90;;;;;;5055340;28;20430;-77
2022/09/21 04:12:33;;;;;;;4.87;2.93;;;7.50;99.90;;;;;;5054349;28;20836;-77
2022/09/21 04:15:03;;;;;;;5.33;3.00;;;7.50;99.90;;;;;;5053305;28;20836;-77
2022/09/21 04:19:57;;;;;;;6.27;3.40;;;7.40;99.90;;;;;;5030339;28;20517;-73
2022/09/21 04:22:23;;;;;;;2.70;2.50;;;7.40;99.90;;;;;;5033249;28;20915;-72
2022/09/21 04:24:49;;;;;;;4.90;2.60;;;7.50;99.90;;;;;;5033215;28;20177;-71
2022/09/21 04:27:15;;;;;;;4.77;4.27;;;7.40;99.90;;;;;;5033065;28;20956;-71
2022/09/21 04:29:41;;;;;;;4.53;3.20;;;7.40;99.90;;;;;;5033028;28;20472;-71
2022/09/21 04:32:06;;;;;;;4.83;3.07;;;7.30;99.90;;;;;;5033008;28;20697;-73
2022/09/21 04:34:32;;;;;;;9.97;3.43;;;7.30;99.90;;;;;;5033332;28;20230;-72
2022/09/21 04:36:58;;;;;;;3.60;3.10;;;7.30;99.90;;;;;;5033140;28;20167;-72
2022/09/21 04:39:24;;;;;;;4.13;2.37;;;7.30;99.90;;;;;;5033318;28;20579;-72
2022/09/21 04:41:50;;;;;;;6.30;3.67;;;7.30;99.90;;;;;;5033306;28;20533;-71
2022/09/21 04:44:17;;;;;;;3.77;3.13;;;7.30;99.90;;;;;;5032853;28;20982;-72
2022/09/21 04:46:43;;;;;;;4.60;2.77;;;7.30;99.90;;;;;;5014878;28;20594;-71
2022/09/21 04:49:09;;;;;;;4.77;3.60;;;7.40;99.90;;;;;;5032516;28;20418;-71
2022/09/21 04:51:35;;;;;;;5.10;3.20;;;7.30;99.90;;;;;;5032671;28;20638;-72
2022/09/21 04:54:01;;;;;;;4.50;3.40;;;7.40;99.90;;;;;;5033044;28;20510;-72
2022/09/21 04:56:27;;;;;;;5.93;2.97;;;7.40;99.90;;;;;;5032391;28;20837;-72
2022/09/21 04:58:52;;;;;;;3.77;2.70;;;7.30;99.90;;;;;;5032489;28;20223;-71
2022/09/21 05:01:18;;;;;;;4.70;2.90;;;7.40;99.90;;;;;;5032368;28;20222;-71
2022/09/21 05:03:43;;;;;;;3.47;2.90;;;7.40;99.90;;;;;;5030738;28;20172;-71
2022/09/21 05:06:12;;;;;;;4.17;3.00;;;7.40;99.90;;;;;;5031748;28;20586;-71
2022/09/21 05:11:22;;;;;;;2.83;2.57;;;7.40;99.90;;;;;;5034568;28;20559;-71
2022/09/21 05:13:48;;;;;;;5.20;2.83;;;7.40;99.90;;;;;;5035371;28;20453;-72
2022/09/21 05:16:16;;;;;;;3.97;3.10;;;7.40;99.90;;;;;;5031771;28;20180;-73
2022/09/21 05:18:42;;;;;;;7.13;2.80;;;7.40;99.90;;;;;;5030915;28;20457;-73
2022/09/21 05:21:09;;;;;;;4.20;3.60;;;7.40;99.90;;;;;;5031302;28;20449;-72
2022/09/21 05:23:35;;;;;;;4.70;4.10;;;7.50;99.90;;;;;;5032015;28;20172;-71
2022/09/21 05:26:01;;;;;;;4.90;3.07;;;7.50;99.90;;;;;;5032140;28;20821;-73
2022/09/21 05:28:26;;;;;;;7.70;4.03;;;7.50;99.90;;;;;;5031983;28;20184;-71
2022/09/21 05:30:56;;;;;;;5.20;4.20;;;7.70;99.90;;;;;;5032689;28;20180;-70
2022/09/21 05:33:24;;;;;;;6.90;5.83;;;7.70;99.90;;;;;;5031999;28;20171;-71
2022/09/21 05:36:08;;;;;;;4.57;3.77;;;7.70;99.90;;;;;;5031792;28;20415;-71
2022/09/21 05:38:34;;;;;;;3.90;3.50;;;7.70;99.90;;;;;;5031915;28;20430;-72
2022/09/21 05:41:00;;;;;;;7.13;3.63;;;7.70;99.90;;;;;;5031978;28;20549;-72
2022/09/21 05:43:26;;;;;;;4.20;3.60;;;7.80;99.90;;;;;;5031766;28;20172;-71
2022/09/21 05:46:00;;;;;;;3.10;2.87;;;7.80;99.90;;;;;;5031644;28;20932;-72
2022/09/21 05:48:46;;;;;;;3.70;3.13;;;7.90;99.90;;;;;;5031856;28;20957;-72
2022/09/21 05:51:48;;;;;;;5.40;3.70;;;8.00;99.90;;;;;;5031897;28;20415;-72
2022/09/21 05:54:41;;;;;;;5.47;4.30;;;8.20;99.90;;;;;;5031757;28;20420;-72
2022/09/21 05:57:33;;;;;;;6.00;4.63;;;8.40;99.90;;;;;;5031769;28;20914;-72
2022/09/21 06:00:14;;;;;;;6.10;5.20;;;8.60;99.90;;;;;;5031527;28;20966;-71
2022/09/21 06:02:47;;;;;;;6.73;4.57;;;8.80;99.90;;;;;;5031769;28;21018;-72
2022/09/21 06:05:14;;;;;;;6.37;5.10;;;8.90;99.90;;;;;;5013808;28;20414;-74
2022/09/21 06:07:40;;;;;;;6.13;4.70;;;8.90;99.90;;;;;;5031732;28;20908;-72
2022/09/21 06:10:07;;;;;;;3.77;3.37;;;8.80;99.90;;;;;;5031691;28;20517;-72
2022/09/21 06:12:33;;;;;;;4.40;3.53;;;8.80;99.90;;;;;;5031450;28;20268;-72
2022/09/21 06:14:58;;;;;;;6.53;3.37;;;8.80;99.90;;;;;;5031535;28;20850;-72
2022/09/21 06:17:26;;;;;;;4.13;3.57;;;9.00;99.90;;;;;;5031486;28;20465;-72
2022/09/21 06:19:52;;;;;;;3.00;2.80;;;9.00;99.90;;;;;;5031289;28;20189;-72
2022/09/21 06:22:18;;;;;;;6.13;3.93;;;9.10;99.90;;;;;;5034918;28;20402;-72
2022/09/21 06:24:43;;;;;;;3.47;3.17;;;9.20;99.90;;;;;;5035464;28;20750;-72
2022/09/21 06:27:09;;;;;;;2.63;2.43;;;9.10;99.90;;;;;;5050458;28;20177;-72
2022/09/21 06:29:34;;;;;;;3.33;2.60;;;9.20;99.90;;;;;;5035207;28;20661;-73
2022/09/21 06:32:04;;;;;;;3.70;2.93;;;9.10;99.90;;;;;;5035771;28;20175;-71
2022/09/21 06:34:29;;;;;;;6.33;3.00;;;9.40;99.90;;;;;;5035399;28;20179;-72
2022/09/21 06:36:56;;;;;;;11.27;3.80;;;9.40;99.90;;;;;;5035455;28;20919;-73
2022/09/21 06:39:21;;;;;;;8.10;3.97;;;9.40;99.90;;;;;;5035377;28;20195;-73
2022/09/21 06:41:47;;;;;;;5.00;3.30;;;9.40;99.90;;;;;;5035290;28;20500;-73
2022/09/21 06:44:12;;;;;;;8.83;5.47;;;9.40;99.90;;;;;;5035268;28;20195;-73
2022/09/21 06:46:38;;;;;;;3.83;3.47;;;9.60;99.90;;;;;;5035376;28;20230;-72
2022/09/21 06:49:03;;;;;;;5.13;3.10;;;9.70;99.90;;;;;;5017407;28;20205;-71
2022/09/21 06:51:29;;;;;;;6.30;3.17;;;9.80;99.90;;;;;;5035108;28;20176;-72
2022/09/21 06:53:56;;;;;;;5.23;3.63;;;9.90;99.90;;;;;;5017103;28;20182;-73
2022/09/21 06:56:22;;;;;;;5.23;3.50;;;9.90;99.90;;;;;;5034906;28;20550;-72
2022/09/21 06:58:47;;;;;;;4.20;3.80;;;10.10;99.90;;;;;;5034817;28;20434;-72
2022/09/21 07:01:14;;;;;;;5.60;3.63;;;10.20;99.90;;;;;;5034730;28;20454;-72
2022/09/21 07:03:41;;;;;;;5.20;4.30;;;10.20;99.90;;;;;;5016948;28;20190;-72
2022/09/21 07:06:10;;;;;;;3.87;3.20;;;10.40;99.90;;;;;;5034524;28;20728;-71
2022/09/21 07:08:36;;;;;;;8.87;3.67;;;10.40;99.90;;;;;;5034570;28;20429;-72
2022/09/21 07:11:02;;;;;;;4.27;3.87;;;10.60;99.90;;;;;;5034761;28;20410;-72
2022/09/21 07:13:28;;;;;;;7.50;3.80;;;10.90;99.90;;;;;;5034475;28;20405;-72
2022/09/21 07:15:54;;;;;;;4.80;3.07;;;11.00;99.90;;;;;;5034399;28;20520;-72
2022/09/21 07:18:20;;;;;;;6.23;3.17;;;11.00;99.90;;;;;;5034287;28;20532;-72
2022/09/21 07:20:49;;;;;;;4.00;2.83;;;11.10;99.90;;;;;;5016355;28;20592;-73
2022/09/21 07:23:17;;;;;;;10.40;3.53;;;11.30;99.90;;;;;;5034198;28;20398;-71
2022/09/21 07:25:45;;;;;;;6.00;2.93;;;10.90;99.90;;;;;;5016413;28;20504;-72
2022/09/21 07:28:11;;;;;;;3.57;2.40;;;10.80;99.90;;;;;;5034007;28;20479;-72
2022/09/21 07:30:40;;;;;;;3.63;3.33;;;10.90;99.90;;;;;;5034163;28;20438;-72
2022/09/21 07:33:06;;;;;;;10.83;4.67;;;11.00;99.90;;;;;;5034297;28;20489;-73
2022/09/21 07:35:31;;;;;;;4.03;2.57;;;11.40;99.90;;;;;;5034217;28;20771;-73
2022/09/21 07:38:02;;;;;;;4.93;3.10;;;11.10;99.90;;;;;;5033883;28;20426;-73
2022/09/21 07:40:28;;;;;;;5.60;3.90;;;11.30;99.90;;;;;;5034077;28;20199;-73
2022/09/21 07:42:58;;;;;;;3.50;2.77;;;12.10;99.90;;;;;;5034247;28;20410;-73
2022/09/21 07:45:25;;;;;;;7.37;4.60;;;12.10;99.90;;;;;;5034169;28;20174;-73
2022/09/21 07:47:53;;;;;;;8.50;4.80;;;12.30;99.90;;;;;;5034302;28;20419;-73
2022/09/21 07:50:19;;;;;;;4.07;2.60;;;12.30;99.90;;;;;;5034285;28;20417;-72
2022/09/21 07:52:45;;;;;;;4.67;3.67;;;12.00;99.90;;;;;;5034473;28;20430;-72
2022/09/21 07:55:10;;;;;;;7.03;2.97;;;12.20;99.90;;;;;;5034139;28;20429;-73
2022/09/21 08:00:21;;;;;;;3.30;2.60;;;11.70;99.90;;;;;;5033840;28;20615;-73
2022/09/21 08:02:46;;;;;;;4.03;2.47;;;11.40;99.90;;;;;;5033820;28;20755;-73
2022/09/21 08:05:12;;;;;;;3.93;3.00;;;11.80;99.90;;;;;;5033630;28;20413;-73
2022/09/21 08:07:38;;;;;;;4.20;2.73;;;11.70;99.90;;;;;;5033761;28;20171;-72
2022/09/21 08:10:03;;;;;;;4.30;2.53;;;11.90;99.90;;;;;;5033971;28;20225;-73
2022/09/21 08:12:29;;;;;;;3.50;1.97;;;11.90;99.90;;;;;;5033537;28;20255;-72
2022/09/21 08:14:54;;;;;;;4.03;2.80;;;12.10;99.90;;;;;;5033797;28;20171;-72
2022/09/21 08:17:20;;;;;;;4.13;3.03;;;12.20;99.90;;;;;;5033242;28;20219;-73
2022/09/21 08:19:46;;;;;;;3.33;2.70;;;12.70;99.90;;;;;;5033209;28;20262;-73
2022/09/21 08:22:12;;;;;;;2.90;2.23;;;12.70;99.90;;;;;;5033445;28;20582;-73
2022/09/21 08:24:40;;;;;;;2.77;2.43;;;12.60;99.90;;;;;;5015732;28;20167;-72
2022/09/21 08:27:07;;;;;;;3.10;2.80;;;12.50;99.90;;;;;;5033395;28;20466;-73
2022/09/21 08:29:32;;;;;;;2.80;2.30;;;12.60;99.90;;;;;;5033492;28;20418;-75
2022/09/21 08:31:58;;;;;;;3.30;2.80;;;12.30;99.90;;;;;;5033561;28;20975;-73
2022/09/21 08:34:25;;;;;;;3.27;2.77;;;12.40;99.90;;;;;;5033674;28;20633;-73
2022/09/21 08:36:50;;;;;;;2.67;2.20;;;12.50;99.90;;;;;;5033664;28;20202;-72
2022/09/21 08:39:16;;;;;;;4.00;2.73;;;12.60;99.90;;;;;;5033418;28;20904;-72
2022/09/21 08:41:59;;;;;;;4.27;2.93;;;12.90;99.90;;;;;;5033209;28;20187;-73
2022/09/21 08:44:32;;;;;;;2.73;2.40;;;13.10;99.90;;;;;;5032393;28;20168;-74
2022/09/21 08:47:11;;;;;;;2.67;2.33;;;13.00;99.90;;;;;;5032981;28;20412;-73
2022/09/21 08:49:40;;;;;;;4.60;2.77;;;13.50;99.90;;;;;;5033540;28;20434;-73
2022/09/21 08:52:10;;;;;;;3.97;2.50;;;13.70;99.90;;;;;;5033859;28;20391;-73
2022/09/21 08:54:55;;;;;;;2.40;2.20;;;13.70;99.90;;;;;;5034398;28;20411;-73
2022/09/21 08:57:27;;;;;;;5.80;3.20;;;13.20;99.90;;;;;;5034563;28;20394;-73
2022/09/21 08:59:53;;;;;;;4.40;3.10;;;12.90;99.90;;;;;;5034495;28;20407;-73
2022/09/21 09:02:44;;;;;;;4.90;2.57;;;12.90;99.90;;;;;;5033742;28;20457;-73
2022/09/21 09:05:32;;;;;;;3.77;3.03;;;13.50;99.90;;;;;;5033577;28;20180;-72
2022/09/21 09:08:35;;;;;;;3.00;2.80;;;13.80;99.90;;;;;;5033370;28;20422;-73
2022/09/21 09:11:05;;;;;;;3.23;2.53;;;13.90;99.90;;;;;;5032981;28;20433;-73
2022/09/21 09:13:41;;;;;;;2.93;2.17;;;13.90;99.90;;;;;;5015485;28;20998;-73
2022/09/21 09:16:55;;;;;;;4.67;2.77;;;13.90;99.90;;;;;;5032821;28;20430;-74
2022/09/21 09:19:40;;;;;;;2.90;2.20;;;14.10;99.90;;;;;;4952007;29;20663;-73
2022/09/21 09:22:09;;;;;;;4.13;2.23;;;14.70;99.90;;;;;;5032146;28;20416;-73
2022/09/21 09:24:45;;;;;;;2.17;1.97;;;14.90;99.90;;;;;;5031980;28;20464;-73
2022/09/21 09:27:32;;;;;;;1.90;1.80;;;14.80;99.90;;;;;;5032225;28;20529;-73
2022/09/21 09:30:20;;;;;;;3.27;2.50;;;14.60;99.90;;;;;;5032020;28;20414;-73
2022/09/21 09:33:04;;;;;;;3.73;2.53;;;14.60;99.90;;;;;;5032243;28;20415;-72
2022/09/21 09:35:39;;;;;;;3.43;2.30;;;14.30;99.90;;;;;;5031832;28;20404;-74
2022/09/21 09:38:23;;;;;;;3.10;1.97;;;14.20;99.90;;;;;;5031788;28;20899;-74
2022/09/21 09:41:17;;;;;;;5.33;2.10;;;14.20;99.90;;;;;;5031673;28;20448;-74
2022/09/21 09:44:01;;;;;;;2.60;2.23;;;14.40;99.90;;;;;;5031925;28;20911;-74
2022/09/21 09:46:34;;;;;;;2.60;1.63;;;15.20;99.90;;;;;;5024201;28;20455;-73
2022/09/21 09:49:18;;;;;;;2.07;1.83;;;15.70;99.90;;;;;;5031701;28;20522;-74
2022/09/21 09:51:44;;;;;;;4.00;2.03;;;15.60;99.90;;;;;;5031668;28;20478;-73
2022/09/21 09:54:16;;;;;;;2.73;1.93;;;15.80;99.90;;;;;;5031675;28;20403;-73
2022/09/21 09:56:42;;;;;;;5.03;2.57;;;15.50;99.90;;;;;;5031441;28;20444;-73
2022/09/21 09:59:47;;;;;;;4.50;3.73;;;15.30;99.90;;;;;;5030347;28;20428;-73
2022/09/21 10:02:20;;;;;;;3.70;3.30;;;15.60;99.90;;;;;;5030322;28;20419;-73
2022/09/21 10:05:02;;;;;;;3.93;2.43;;;15.50;99.90;;;;;;5031595;28;20399;-72
2022/09/21 10:07:44;;;;;;;2.27;1.50;;;15.80;99.90;;;;;;5030219;28;20439;-73
2022/09/21 10:10:29;;;;;;;3.50;1.90;;;15.50;99.90;;;;;;5031477;28;20834;-73
2022/09/21 10:13:08;;;;;;;4.77;2.00;;;15.70;99.90;;;;;;5031460;28;20499;-72
2022/09/21 10:15:54;;;;;;;1.83;1.73;;;15.40;99.90;;;;;;5031381;28;20410;-72
2022/09/21 10:18:31;;;;;;;1.70;1.20;;;15.40;99.90;;;;;;5057162;22;20478;-79
2022/09/21 10:21:02;;;;;;;1.53;1.40;;;15.50;99.90;;;;;;5036098;28;21052;-79
2022/09/21 10:24:23;;;;;;;1.50;1.30;;;15.70;99.90;;;;;;5045744;28;20419;-79
2022/09/21 10:27:03;;;;;;;1.33;1.10;;;16.10;99.90;;;;;;5045734;28;20419;-80
2022/09/21 10:29:38;;;;;;;1.30;1.20;;;16.00;99.90;;;;;;5010151;28;20436;-79
2022/09/21 10:32:28;;;;;;;1.93;1.73;;;16.50;99.90;;;;;;5011331;28;20412;-79
2022/09/21 10:35:06;;;;;;;3.43;2.10;;;16.20;99.90;;;;;;5011150;28;20431;-79
2022/09/21 10:37:36;;;;;;;1.33;1.23;;;16.40;99.90;;;;;;5012265;28;20462;-79
2022/09/21 10:40:03;;;;;;;1.47;1.20;;;16.70;99.90;;;;;;5004834;28;20428;-80
2022/09/21 10:42:41;;;;;;;1.23;1.13;;;16.70;99.90;;;;;;5003504;28;20443;-80
2022/09/21 10:45:14;;;;;;;1.27;1.10;;;16.80;99.90;;;;;;5037606;28;20421;-80
2022/09/21 10:47:55;;;;;;;1.47;1.10;;;16.60;99.90;;;;;;5041416;28;20499;-82
2022/09/21 10:50:45;;;;;;;1.80;0.83;;;16.50;99.90;;;;;;5041608;28;20459;-81
2022/09/21 10:53:31;;;;;;;1.07;0.87;;;16.40;99.90;;;;;;5026323;28;20479;-81
2022/09/21 10:56:15;;;;;;;1.17;0.83;;;16.30;99.90;;;;;;5041725;28;20420;-81
2022/09/21 10:59:20;;;;;;;0.83;0.80;;;16.10;99.90;;;;;;5041177;28;20427;-80
2022/09/21 11:01:51;;;;;;;1.00;0.90;;;16.00;99.90;;;;;;5040587;28;20497;-79
2022/09/21 11:04:42;;;;;;;1.13;1.00;;;16.00;99.90;;;;;;5041967;28;20472;-80
2022/09/21 11:07:38;;;;;;;1.53;1.10;;;15.90;99.90;;;;;;5034935;28;20427;-79
2022/09/21 11:10:29;;;;;;;1.73;1.27;;;16.20;99.90;;;;;;5055654;28;20429;-79
2022/09/21 11:13:23;;;;;;;2.50;1.00;;;16.40;99.90;;;;;;5054357;28;20472;-79
2022/09/21 11:16:09;;;;;;;2.10;0.90;;;16.70;99.90;;;;;;5034949;28;20467;-79
2022/09/21 11:19:00;;;;;;;1.13;0.90;;;16.70;99.90;;;;;;5045155;28;20444;-80
2022/09/21 11:21:39;;;;;;;2.00;0.97;;;16.80;99.90;;;;;;5044251;28;20966;-80
2022/09/21 11:24:30;;;;;;;2.00;1.03;;;16.40;99.90;;;;;;5044689;28;20495;-80
2022/09/21 11:27:05;;;;;;;1.10;0.90;;;16.40;99.90;;;;;;5033667;28;20496;-80
2022/09/21 11:30:07;;;;;;;1.63;1.17;;;16.40;99.90;;;;;;5043980;28;20866;-80
2022/09/21 11:33:05;;;;;;;2.67;1.53;;;16.80;99.90;;;;;;5033528;28;20927;-80
2022/09/21 11:35:55;;;;;;;2.50;1.10;;;17.00;99.90;;;;;;5043477;28;20406;-80
2022/09/21 11:38:48;;;;;;;1.63;1.00;;;16.70;99.90;;;;;;5043468;28;20433;-80
2022/09/21 11:41:35;;;;;;;2.07;1.13;;;16.50;99.90;;;;;;5043705;28;20452;-81
2022/09/21 11:44:24;;;;;;;1.40;1.30;;;16.60;99.90;;;;;;5044490;28;20392;-80
2022/09/21 11:47:27;;;;;;;1.10;1.00;;;16.70;99.90;;;;;;5043900;28;20462;-80
2022/09/21 11:49:52;;;;;;;1.10;1.00;;;16.80;99.90;;;;;;5044160;28;20429;-80
2022/09/21 11:53:00;;;;;;;1.30;1.20;;;16.30;99.90;;;;;;5043755;28;20481;-80
2022/09/21 11:55:40;;;;;;;0.90;0.77;;;16.50;99.90;;;;;;5043411;28;20205;-80
2022/09/21 11:58:39;;;;;;;1.90;1.10;;;16.50;99.90;;;;;;5044767;28;20970;-80
2022/09/21 12:01:32;;;;;;;1.23;0.90;;;16.50;99.90;;;;;;4999216;28;20483;-80
2022/09/21 12:04:16;;;;;;;0.83;0.83;;;16.80;99.90;;;;;;5051162;28;20402;-80
2022/09/21 12:07:12;;;;;;;1.10;0.90;;;16.70;99.90;;;;;;5053425;28;20415;-79
2022/09/21 12:10:04;;;;;;;1.60;0.80;;;16.30;99.90;;;;;;5053667;28;20492;-80
2022/09/21 12:12:49;;;;;;;1.97;1.00;;;16.40;99.90;;;;;;5055529;28;20419;-81
2022/09/21 12:15:25;;;;;;;0.97;0.87;;;16.50;99.90;;;;;;5057130;28;20412;-81
2022/09/21 12:18:18;;;;;;;0.97;0.73;;;16.40;99.90;;;;;;5049423;28;20401;-81
2022/09/21 12:20:51;;;;;;;1.23;0.97;;;16.30;99.90;;;;;;5045345;28;20452;-81
2022/09/21 12:23:39;;;;;;;1.00;0.80;;;16.30;99.90;;;;;;5044520;28;20420;-81
2022/09/21 12:26:05;;;;;;;1.10;0.90;;;16.40;99.90;;;;;;5045373;28;20417;-80
2022/09/21 12:28:38;;;;;;;1.00;0.80;;;16.60;99.90;;;;;;5044914;28;20461;-82
2022/09/21 12:31:13;;;;;;;0.70;0.60;;;16.70;99.90;;;;;;5043604;28;20414;-81
2022/09/21 12:33:50;;;;;;;0.90;0.80;;;17.00;99.90;;;;;;5043148;28;20422;-80
2022/09/21 12:36:24;;;;;;;1.07;0.97;;;16.80;99.90;;;;;;5043346;28;20506;-80
2022/09/21 12:38:54;;;;;;;1.23;1.13;;;16.80;99.90;;;;;;5025551;28;20475;-80
2022/09/21 12:41:34;;;;;;;1.57;1.43;;;16.60;99.90;;;;;;5025161;28;20483;-80
2022/09/21 12:44:25;;;;;;;3.00;1.43;;;16.50;99.90;;;;;;5044077;28;20415;-80
2022/09/21 12:47:09;;;;;;;1.10;1.00;;;16.60;99.90;;;;;;5043663;28;20400;-80
2022/09/21 12:49:45;;;;;;;2.23;0.90;;;16.40;99.90;;;;;;5025259;28;20440;-80
2022/09/21 12:52:18;;;;;;;0.93;0.80;;;16.30;99.90;;;;;;5043776;28;20877;-81
2022/09/21 12:55:04;;;;;;;1.10;0.93;;;16.30;99.90;;;;;;5043742;28;20459;-80
2022/09/21 12:57:35;;;;;;;1.30;1.07;;;16.30;99.90;;;;;;5044255;28;20776;-81
2022/09/21 13:00:07;;;;;;;3.97;1.03;;;16.20;99.90;;;;;;5043506;28;20833;-81
2022/09/21 13:03:03;;;;;;;1.17;1.00;;;16.00;99.90;;;;;;5043320;28;20533;-80
2022/09/21 13:05:41;;;;;;;1.33;1.23;;;16.10;99.90;;;;;;5034837;28;20442;-82
2022/09/21 13:08:11;;;;;;;1.77;0.87;;;16.30;99.90;;;;;;5043534;28;20414;-80
2022/09/21 13:10:44;;;;;;;1.50;1.10;;;16.30;99.90;;;;;;5042152;28;20406;-81
2022/09/21 13:13:18;;;;;;;1.53;1.30;;;16.30;99.90;;;;;;5049260;28;20492;-80
2022/09/21 13:15:47;;;;;;;0.80;0.63;;;16.30;99.90;;;;;;5052016;28;20907;-80
2022/09/21 13:18:20;;;;;;;0.77;0.77;;;16.30;99.90;;;;;;5051606;28;20431;-80
2022/09/21 13:20:47;;;;;;;0.77;0.77;;;16.60;99.90;;;;;;5033586;28;20459;-80
2022/09/21 13:23:19;;;;;;;1.30;1.10;;;16.70;99.90;;;;;;5052830;28;20408;-80
2022/09/21 13:25:58;;;;;;;1.10;1.00;;;16.60;99.90;;;;;;5053316;28;20463;-80
2022/09/21 13:28:59;;;;;;;2.73;1.07;;;16.50;99.90;;;;;;5052431;28;20439;-80
2022/09/21 13:31:58;;;;;;;1.43;1.20;;;16.50;99.90;;;;;;5051565;28;20422;-80
2022/09/21 13:34:35;;;;;;;1.00;1.00;;;16.60;99.90;;;;;;5038282;28;20576;-80